createdAt,value
2023-06-17T00:00:40.455Z,9.711702
2023-06-17T00:01:40.393Z,9.711750
2023-06-17T00:02:40.419Z,9.711807
2023-06-17T00:03:40.412Z,9.711432
2023-06-17T00:04:40.362Z,9.711813
2023-06-17T00:05:40.371Z,9.711967
2023-06-17T00:06:40.373Z,9.711877
2023-06-17T00:07:40.350Z,9.711460
2023-06-17T00:08:40.344Z,9.711627
2023-06-17T00:09:40.330Z,9.712085
2023-06-17T00:10:40.356Z,9.711788
2023-06-17T00:11:40.324Z,9.711816
2023-06-17T00:12:40.293Z,9.711956
2023-06-17T00:13:40.324Z,9.712011
2023-06-17T00:14:40.291Z,9.711995
2023-06-17T00:15:40.283Z,9.712078
2023-06-17T00:16:40.278Z,9.711947
2023-06-17T00:17:40.269Z,9.712230
2023-06-17T00:18:40.287Z,9.712072
2023-06-17T00:22:40.979Z,9.712267
2023-06-17T00:23:41.663Z,9.712335
2023-06-17T00:24:40.868Z,9.712134
2023-06-17T00:25:40.841Z,9.712197
2023-06-17T00:26:40.836Z,9.712174
2023-06-17T00:27:41.860Z,9.712146
2023-06-17T00:28:40.820Z,9.712261
2023-06-17T00:29:40.814Z,9.711806
2023-06-17T00:30:40.823Z,9.711678
2023-06-17T00:31:40.810Z,9.711596
2023-06-17T00:32:40.795Z,9.711597
2023-06-17T00:33:40.792Z,9.711586
2023-06-17T00:34:40.770Z,9.711591
2023-06-17T00:35:40.806Z,9.711621
2023-06-17T00:36:40.755Z,9.711603
2023-06-17T00:37:40.759Z,9.711594
2023-06-17T00:38:40.764Z,9.711559
2023-06-17T00:39:40.741Z,9.711571
2023-06-17T00:40:40.749Z,9.711658
2023-06-17T00:41:40.716Z,9.711642
2023-06-17T00:42:40.736Z,9.711657
2023-06-17T00:43:40.693Z,9.711561
2023-06-17T00:44:40.707Z,9.711635
2023-06-17T00:45:40.844Z,9.711610
2023-06-17T00:46:40.668Z,9.711677
2023-06-17T00:47:41.796Z,9.711649
2023-06-17T00:48:40.659Z,9.711674
2023-06-17T00:49:40.648Z,9.711634
2023-06-17T00:50:40.643Z,9.711698
2023-06-17T00:51:40.636Z,9.711680
2023-06-17T00:52:42.912Z,9.711675
2023-06-17T00:53:41.607Z,9.711709
2023-06-17T00:54:40.628Z,9.711604
2023-06-17T00:55:41.667Z,9.711613
2023-06-17T00:56:40.591Z,9.711684
2023-06-17T00:57:40.573Z,9.711685
2023-06-17T00:58:40.592Z,9.711625
2023-06-17T00:59:40.569Z,9.711735
2023-06-17T01:00:40.564Z,9.711759
2023-06-17T01:01:40.551Z,9.711610
2023-06-17T01:02:40.598Z,9.711638
2023-06-17T01:03:41.276Z,9.711618
2023-06-17T01:04:40.515Z,9.711608
2023-06-17T01:05:40.531Z,9.711792
2023-06-17T01:06:40.515Z,9.711850
2023-06-17T01:07:40.504Z,9.711774
2023-06-17T01:08:40.499Z,9.711800
2023-06-17T01:09:40.485Z,9.711765
2023-06-17T01:10:40.513Z,9.711782
2023-06-17T01:11:40.477Z,9.711791
2023-06-17T01:12:40.478Z,9.711902
2023-06-17T01:13:40.459Z,9.711779
2023-06-17T01:14:40.444Z,9.711831
2023-06-17T01:15:40.445Z,9.711856
2023-06-17T01:16:41.330Z,9.711740
2023-06-17T01:17:40.441Z,9.711161
2023-06-17T01:18:40.413Z,9.711207
2023-06-17T01:19:40.409Z,9.711389
2023-06-17T01:20:40.427Z,9.711692
2023-06-17T01:21:40.388Z,9.711513
2023-06-17T01:22:40.380Z,9.711114
2023-06-17T01:23:40.428Z,9.710786
2023-06-17T01:24:40.378Z,9.710731
2023-06-17T01:25:40.383Z,9.710782
2023-06-17T01:26:40.361Z,9.711504
2023-06-17T01:27:40.361Z,9.711592
2023-06-17T01:28:40.347Z,9.711597
2023-06-17T01:29:40.334Z,9.711797
2023-06-17T01:30:40.329Z,9.711584
2023-06-17T01:31:40.315Z,9.711545
2023-06-17T01:32:40.410Z,9.711534
2023-06-17T01:33:40.298Z,9.711583
2023-06-17T01:34:40.337Z,9.711764
2023-06-17T01:35:40.281Z,9.711835
2023-06-17T01:36:41.281Z,9.711732
2023-06-17T01:37:40.275Z,9.711729
2023-06-17T01:38:40.266Z,9.711749
2023-06-17T01:39:40.269Z,9.711829
2023-06-17T01:40:40.232Z,9.711956
2023-06-17T01:41:40.239Z,9.711754
2023-06-17T01:42:40.223Z,9.711780
2023-06-17T01:43:40.203Z,9.711512
2023-06-17T01:44:40.220Z,9.711461
2023-06-17T01:45:40.236Z,9.711732
2023-06-17T01:46:40.181Z,9.711812
2023-06-17T01:47:40.333Z,9.711821
2023-06-17T01:48:40.186Z,9.711624
2023-06-17T01:49:40.167Z,9.711546
2023-06-17T01:50:40.175Z,9.711534
2023-06-17T01:51:40.678Z,9.711580
2023-06-17T01:52:40.143Z,9.711658
2023-06-17T01:53:40.160Z,9.711675
2023-06-17T01:54:40.145Z,9.711683
2023-06-17T01:55:40.117Z,9.711637
2023-06-17T01:56:40.116Z,9.711633
2023-06-17T01:57:40.098Z,9.711591
2023-06-17T01:58:40.091Z,9.711674
2023-06-17T01:59:40.085Z,9.711636
2023-06-17T02:00:40.078Z,9.711687
2023-06-17T02:01:40.057Z,9.711742
2023-06-17T02:02:40.168Z,9.711741
2023-06-17T02:03:40.098Z,9.711674
2023-06-17T02:04:40.048Z,9.711674
2023-06-17T02:05:40.029Z,9.711669
2023-06-17T02:06:40.020Z,9.711685
2023-06-17T02:07:40.021Z,9.711670
2023-06-17T02:08:39.993Z,9.711565
2023-06-17T02:09:40.056Z,9.711621
2023-06-17T02:10:39.991Z,9.711792
2023-06-17T02:11:39.993Z,9.711727
2023-06-17T02:12:39.979Z,9.711754
2023-06-17T02:13:39.972Z,9.711688
2023-06-17T02:14:39.964Z,9.711667
2023-06-17T02:15:40.047Z,9.711740
2023-06-17T02:16:39.988Z,9.711733
2023-06-17T02:17:39.965Z,9.711774
2023-06-17T02:18:39.916Z,9.711597
2023-06-17T02:19:39.933Z,9.711565
2023-06-17T02:20:39.911Z,9.711398
2023-06-17T02:21:39.891Z,9.711614
2023-06-17T02:22:39.892Z,9.711866
2023-06-17T02:23:39.889Z,9.711721
2023-06-17T02:24:39.952Z,9.711746
2023-06-17T02:25:39.900Z,9.711744
2023-06-17T02:26:39.860Z,9.711597
2023-06-17T02:27:39.848Z,9.711604
2023-06-17T02:28:39.861Z,9.711741
2023-06-17T02:29:39.825Z,9.711679
2023-06-17T02:30:39.864Z,9.711721
2023-06-17T02:31:39.875Z,9.711702
2023-06-17T02:32:39.836Z,9.711593
2023-06-17T02:33:39.849Z,9.711571
2023-06-17T02:34:39.793Z,9.711742
2023-06-17T02:35:40.293Z,9.711700
2023-06-17T02:36:39.767Z,9.711880
2023-06-17T02:37:39.770Z,9.711887
2023-06-17T02:38:39.770Z,9.711859
2023-06-17T02:39:39.754Z,9.711896
2023-06-17T02:40:39.758Z,9.711904
2023-06-17T02:41:39.729Z,9.711940
2023-06-17T02:42:39.709Z,9.712079
2023-06-17T02:43:40.718Z,9.711961
2023-06-17T02:44:39.733Z,9.712038
2023-06-17T02:45:39.712Z,9.712002
2023-06-17T02:46:39.773Z,9.711894
2023-06-17T02:47:39.689Z,9.711885
2023-06-17T02:48:40.660Z,9.711773
2023-06-17T02:49:39.679Z,9.712012
2023-06-17T02:50:39.669Z,9.711972
2023-06-17T02:51:39.656Z,9.712020
2023-06-17T02:52:39.632Z,9.712409
2023-06-17T02:53:39.634Z,9.712461
2023-06-17T02:54:39.630Z,9.712234
2023-06-17T02:55:40.279Z,9.711987
2023-06-17T02:56:39.614Z,9.711830
2023-06-17T02:57:39.592Z,9.711902
2023-06-17T02:58:39.597Z,9.711894
2023-06-17T02:59:39.586Z,9.711846
2023-06-17T03:00:39.584Z,9.711538
2023-06-17T03:01:39.571Z,9.712043
2023-06-17T03:02:39.690Z,9.711887
2023-06-17T03:03:39.544Z,9.711967
2023-06-17T03:04:39.555Z,9.711802
2023-06-17T03:05:39.550Z,9.711799
2023-06-17T03:06:39.526Z,9.711845
2023-06-17T03:07:39.504Z,9.711780
2023-06-17T03:08:40.511Z,9.711794
2023-06-17T03:09:39.498Z,9.711819
2023-06-17T03:10:39.494Z,9.711855
2023-06-17T03:11:39.489Z,9.711842
2023-06-17T03:12:39.481Z,9.711652
2023-06-17T03:13:39.492Z,9.711801
2023-06-17T03:14:39.457Z,9.711899
2023-06-17T03:15:39.453Z,9.711934
2023-06-17T03:16:39.656Z,9.711805
2023-06-17T03:17:39.516Z,9.711659
2023-06-17T03:18:39.446Z,9.711672
2023-06-17T03:19:39.437Z,9.711741
2023-06-17T03:20:39.458Z,9.711824
2023-06-17T03:21:39.416Z,9.711911
2023-06-17T03:22:39.393Z,9.711889
2023-06-17T03:23:39.383Z,9.711768
2023-06-17T03:24:39.411Z,9.711763
2023-06-17T03:25:39.370Z,9.711779
2023-06-17T03:26:39.372Z,9.711743
2023-06-17T03:27:39.355Z,9.711845
2023-06-17T03:28:39.353Z,9.711789
2023-06-17T03:29:39.337Z,9.711770
2023-06-17T03:30:39.347Z,9.711711
2023-06-17T03:31:39.343Z,9.711585
2023-06-17T03:32:39.330Z,9.711667
2023-06-17T03:33:39.324Z,9.711634
2023-06-17T03:34:39.304Z,9.711794
2023-06-17T03:35:39.328Z,9.711747
2023-06-17T03:36:39.282Z,9.711645
2023-06-17T03:37:39.277Z,9.711712
2023-06-17T03:38:39.283Z,9.711739
2023-06-17T03:39:39.249Z,9.711745
2023-06-17T03:40:39.304Z,9.711681
2023-06-17T03:41:39.240Z,9.711740
2023-06-17T03:42:39.234Z,9.711770
2023-06-17T03:43:39.790Z,9.711777
2023-06-17T03:44:39.210Z,9.711828
2023-06-17T03:45:39.216Z,9.711791
2023-06-17T03:46:39.211Z,9.711625
2023-06-17T03:47:39.259Z,9.711632
2023-06-17T03:48:39.198Z,9.711756
2023-06-17T03:49:39.175Z,9.711766
2023-06-17T03:50:39.170Z,9.711693
2023-06-17T03:51:39.168Z,9.711674
2023-06-17T03:52:39.150Z,9.711454
2023-06-17T03:53:39.136Z,9.711401
2023-06-17T03:54:39.137Z,9.711401
2023-06-17T03:55:39.140Z,9.711617
2023-06-17T03:56:39.112Z,9.711765
2023-06-17T03:57:39.108Z,9.711636
2023-06-17T03:58:39.095Z,9.711517
2023-06-17T03:59:39.093Z,9.711625
2023-06-17T04:00:39.082Z,9.711515
2023-06-17T04:01:39.073Z,9.711571
2023-06-17T04:02:39.160Z,9.711592
2023-06-17T04:03:39.123Z,9.711615
2023-06-17T04:04:39.882Z,9.711690
2023-06-17T04:05:39.037Z,9.712154
2023-06-17T04:06:39.035Z,9.711930
2023-06-17T04:07:39.024Z,9.711875
2023-06-17T04:08:39.024Z,9.711928
2023-06-17T04:09:39.059Z,9.711814
2023-06-17T04:10:39.004Z,9.711694
2023-06-17T04:11:38.998Z,9.711616
2023-06-17T04:12:39.007Z,9.711706
2023-06-17T04:13:38.990Z,9.711608
2023-06-17T04:14:38.986Z,9.711941
2023-06-17T04:15:38.988Z,9.711798
2023-06-17T04:16:38.963Z,9.711713
2023-06-17T04:17:38.983Z,9.711559
2023-06-17T04:18:38.942Z,9.711576
2023-06-17T04:19:38.958Z,9.711864
2023-06-17T04:20:38.926Z,9.711946
2023-06-17T04:21:38.926Z,9.711821
2023-06-17T04:22:38.908Z,9.711998
2023-06-17T04:23:38.890Z,9.712053
2023-06-17T04:24:38.922Z,9.712039
2023-06-17T04:25:38.877Z,9.711900
2023-06-17T04:26:38.890Z,9.711501
2023-06-17T04:27:38.869Z,9.711415
2023-06-17T04:28:38.853Z,9.711872
2023-06-17T04:29:38.856Z,9.712052
2023-06-17T04:30:39.734Z,9.712130
2023-06-17T04:31:38.840Z,9.712286
2023-06-17T04:32:38.851Z,9.712400
2023-06-17T04:33:39.798Z,9.712844
2023-06-17T04:34:38.825Z,9.712573
2023-06-17T04:35:38.807Z,9.712280
2023-06-17T04:36:38.783Z,9.711837
2023-06-17T04:37:38.808Z,9.712115
2023-06-17T04:38:38.797Z,9.712462
2023-06-17T04:39:38.774Z,9.712021
2023-06-17T04:40:38.766Z,9.711986
2023-06-17T04:41:38.749Z,9.711896
2023-06-17T04:42:38.746Z,9.711754
2023-06-17T04:43:38.741Z,9.711777
2023-06-17T04:44:38.735Z,9.711737
2023-06-17T04:45:38.736Z,9.711720
2023-06-17T04:46:38.739Z,9.711693
2023-06-17T04:47:38.755Z,9.711730
2023-06-17T04:48:38.843Z,9.711751
2023-06-17T04:49:38.692Z,9.711800
2023-06-17T04:50:38.697Z,9.711853
2023-06-17T04:51:38.674Z,9.711719
2023-06-17T04:52:38.681Z,9.711719
2023-06-17T04:53:38.661Z,9.711642
2023-06-17T04:54:38.670Z,9.711709
2023-06-17T04:55:38.653Z,9.711697
2023-06-17T04:56:38.638Z,9.711694
2023-06-17T04:57:38.644Z,9.711719
2023-06-17T04:58:39.335Z,9.711708
2023-06-17T04:59:38.620Z,9.711749
2023-06-17T05:00:38.740Z,9.711720
2023-06-17T05:01:38.611Z,9.711766
2023-06-17T05:02:39.289Z,9.711761
2023-06-17T05:03:38.674Z,9.711772
2023-06-17T05:04:38.580Z,9.711668
2023-06-17T05:05:38.580Z,9.711694
2023-06-17T05:06:38.564Z,9.711753
2023-06-17T05:07:38.562Z,9.711738
2023-06-17T05:08:38.543Z,9.711727
2023-06-17T05:09:38.536Z,9.711753
2023-06-17T05:10:38.544Z,9.711768
2023-06-17T05:11:38.524Z,9.711759
2023-06-17T05:12:38.540Z,9.711761
2023-06-17T05:13:38.505Z,9.711760
2023-06-17T05:14:38.501Z,9.711806
2023-06-17T05:15:38.500Z,9.711865
2023-06-17T05:16:38.591Z,9.711866
2023-06-17T05:17:38.519Z,9.711868
2023-06-17T05:18:38.478Z,9.711778
2023-06-17T05:19:38.473Z,9.711815
2023-06-17T05:20:38.458Z,9.711829
2023-06-17T05:21:38.455Z,9.711775
2023-06-17T05:22:38.467Z,9.711822
2023-06-17T05:23:38.427Z,9.711796
2023-06-17T05:24:38.609Z,9.711802
2023-06-17T05:25:38.417Z,9.711824
2023-06-17T05:26:38.412Z,9.711864
2023-06-17T05:27:38.440Z,9.711934
2023-06-17T05:28:38.399Z,9.711891
2023-06-17T05:29:39.893Z,9.712142
2023-06-17T05:30:39.506Z,9.712014
2023-06-17T05:31:38.376Z,9.711905
2023-06-17T05:32:38.409Z,9.711848
2023-06-17T05:33:39.343Z,9.711865
2023-06-17T05:34:38.361Z,9.711809
2023-06-17T05:35:38.362Z,9.711588
2023-06-17T05:36:38.339Z,9.711475
2023-06-17T05:37:38.338Z,9.711557
2023-06-17T05:38:38.318Z,9.711576
2023-06-17T05:39:38.323Z,9.711389
2023-06-17T05:40:38.317Z,9.711408
2023-06-17T05:41:38.311Z,9.711502
2023-06-17T05:42:38.305Z,9.711558
2023-06-17T05:43:38.291Z,9.711617
2023-06-17T05:44:38.285Z,9.711561
2023-06-17T05:45:38.285Z,9.711525
2023-06-17T05:46:38.400Z,9.711693
2023-06-17T05:47:38.288Z,9.711770
2023-06-17T05:48:38.849Z,9.711683
2023-06-17T05:49:38.265Z,9.711842
2023-06-17T05:50:38.773Z,9.711821
2023-06-17T05:51:38.230Z,9.711843
2023-06-17T05:52:38.231Z,9.711871
2023-06-17T05:53:38.214Z,9.711696
2023-06-17T05:54:38.222Z,9.711663
2023-06-17T05:55:38.228Z,9.712377
2023-06-17T05:56:38.207Z,9.712184
2023-06-17T05:57:38.197Z,9.711980
2023-06-17T05:58:38.184Z,9.711905
2023-06-17T05:59:38.179Z,9.712046
2023-06-17T06:00:38.187Z,9.712165
2023-06-17T06:01:38.224Z,9.712085
2023-06-17T06:02:38.185Z,9.712215
2023-06-17T06:03:38.885Z,9.712313
2023-06-17T06:04:38.150Z,9.712785
2023-06-17T06:05:38.173Z,9.712518
2023-06-17T06:06:38.126Z,9.712494
2023-06-17T06:07:38.131Z,9.712484
2023-06-17T06:08:38.119Z,9.712587
2023-06-17T06:09:38.113Z,9.712905
2023-06-17T06:10:38.123Z,9.712600
2023-06-17T06:11:38.112Z,9.712840
2023-06-17T06:12:38.097Z,9.712791
2023-06-17T06:13:38.125Z,9.712797
2023-06-17T06:14:38.096Z,9.712897
2023-06-17T06:15:38.077Z,9.712357
2023-06-17T06:16:38.084Z,9.712019
2023-06-17T06:17:38.119Z,9.711996
2023-06-17T06:18:38.045Z,9.711814
2023-06-17T06:19:38.054Z,9.712046
2023-06-17T06:20:38.067Z,9.712178
2023-06-17T06:21:38.039Z,9.712330
2023-06-17T06:22:38.062Z,9.711972
2023-06-17T06:23:38.029Z,9.711862
2023-06-17T06:24:38.122Z,9.712033
2023-06-17T06:25:38.001Z,9.712122
2023-06-17T06:26:38.006Z,9.711963
2023-06-17T06:27:38.007Z,9.712276
2023-06-17T06:28:37.989Z,9.711781
2023-06-17T06:29:37.978Z,9.711672
2023-06-17T06:30:37.985Z,9.711532
2023-06-17T06:31:38.026Z,9.711510
2023-06-17T06:32:37.993Z,9.711414
2023-06-17T06:33:37.963Z,9.711530
2023-06-17T06:34:37.948Z,9.711562
2023-06-17T06:35:37.950Z,9.711681
2023-06-17T06:36:37.954Z,9.711679
2023-06-17T06:37:37.938Z,9.711898
2023-06-17T06:38:37.929Z,9.711639
2023-06-17T06:39:37.921Z,9.711498
2023-06-17T06:40:37.913Z,9.711434
2023-06-17T06:41:37.908Z,9.711588
2023-06-17T06:42:38.900Z,9.711637
2023-06-17T06:43:37.905Z,9.711682
2023-06-17T06:44:37.880Z,9.711679
2023-06-17T06:45:37.911Z,9.711638
2023-06-17T06:46:37.882Z,9.711702
2023-06-17T06:47:37.913Z,9.711640
2023-06-17T06:48:37.852Z,9.711618
2023-06-17T06:49:37.852Z,9.711709
2023-06-17T06:50:37.865Z,9.711643
2023-06-17T06:51:37.851Z,9.711603
2023-06-17T06:52:37.835Z,9.711592
2023-06-17T06:53:37.836Z,9.711646
2023-06-17T06:54:37.808Z,9.711625
2023-06-17T06:55:37.810Z,9.711648
2023-06-17T06:56:37.802Z,9.711633
2023-06-17T06:57:37.852Z,9.711637
2023-06-17T06:58:37.792Z,9.711608
2023-06-17T06:59:38.404Z,9.711637
2023-06-17T07:00:37.782Z,9.711661
2023-06-17T07:01:37.818Z,9.711654
2023-06-17T07:02:37.783Z,9.711661
2023-06-17T07:03:37.760Z,9.711683
2023-06-17T07:04:37.800Z,9.711676
2023-06-17T07:05:37.743Z,9.711694
2023-06-17T07:06:37.745Z,9.711927
2023-06-17T07:07:37.729Z,9.711923
2023-06-17T07:08:37.726Z,9.711894
2023-06-17T07:09:37.728Z,9.711899
2023-06-17T07:10:38.909Z,9.711892
2023-06-17T07:11:37.707Z,9.711697
2023-06-17T07:12:37.689Z,9.711689
2023-06-17T07:13:37.684Z,9.711659
2023-06-17T07:14:38.311Z,9.711634
2023-06-17T07:15:37.666Z,9.711629
2023-06-17T07:16:37.721Z,9.711620
2023-06-17T07:17:37.692Z,9.711648
2023-06-17T07:18:37.656Z,9.711634
2023-06-17T07:19:37.655Z,9.711634
2023-06-17T07:20:37.643Z,9.711658
2023-06-17T07:21:38.322Z,9.711658
2023-06-17T07:22:37.643Z,9.711636
2023-06-17T07:23:37.641Z,9.711609
2023-06-17T07:24:37.771Z,9.711602
2023-06-17T07:25:37.613Z,9.711622
2023-06-17T07:26:37.608Z,9.711612
2023-06-17T07:27:37.598Z,9.711595
2023-06-17T07:28:37.599Z,9.711515
2023-06-17T07:29:38.395Z,9.711606
2023-06-17T07:30:37.613Z,9.711725
2023-06-17T07:31:37.590Z,9.711683
2023-06-17T07:32:37.640Z,9.711644
2023-06-17T07:33:37.569Z,9.711635
2023-06-17T07:34:37.553Z,9.711608
2023-06-17T07:35:37.557Z,9.711636
2023-06-17T07:36:37.539Z,9.711725
2023-06-17T07:37:37.537Z,9.711649
2023-06-17T07:38:37.525Z,9.711782
2023-06-17T07:39:38.556Z,9.711748
2023-06-17T07:40:37.519Z,9.711730
2023-06-17T07:41:37.520Z,9.711575
2023-06-17T07:42:37.493Z,9.711721
2023-06-17T07:43:37.512Z,9.711922
2023-06-17T07:44:37.484Z,9.711962
2023-06-17T07:45:37.483Z,9.711580
2023-06-17T07:46:37.520Z,9.711733
2023-06-17T07:47:37.492Z,9.711540
2023-06-17T07:48:37.467Z,9.711613
2023-06-17T07:49:37.452Z,9.711837
2023-06-17T07:50:37.464Z,9.711702
2023-06-17T07:51:37.432Z,9.711596
2023-06-17T07:52:37.440Z,9.711647
2023-06-17T07:53:37.426Z,9.711581
2023-06-17T07:54:37.416Z,9.711612
2023-06-17T07:55:37.434Z,9.711684
2023-06-17T07:56:37.408Z,9.711667
2023-06-17T07:57:37.388Z,9.711658
2023-06-17T07:58:37.392Z,9.711774
2023-06-17T07:59:37.386Z,9.711695
2023-06-17T08:00:37.375Z,9.711597
2023-06-17T08:01:37.373Z,9.711677
2023-06-17T08:02:37.467Z,9.711452
2023-06-17T08:03:37.395Z,9.711563
2023-06-17T08:04:37.353Z,9.711683
2023-06-17T08:05:37.330Z,9.711872
2023-06-17T08:06:37.340Z,9.711715
2023-06-17T08:07:37.337Z,9.711726
2023-06-17T08:08:37.319Z,9.712108
2023-06-17T08:09:37.310Z,9.712274
2023-06-17T08:10:37.292Z,9.712481
2023-06-17T08:11:37.915Z,9.712466
2023-06-17T08:12:37.290Z,9.712581
2023-06-17T08:13:37.282Z,9.712520
2023-06-17T08:14:37.320Z,9.712390
2023-06-17T08:15:37.273Z,9.712257
2023-06-17T08:16:37.300Z,9.712201
2023-06-17T08:17:37.303Z,9.712040
2023-06-17T08:18:37.241Z,9.712044
2023-06-17T08:19:37.228Z,9.711699
2023-06-17T08:20:37.220Z,9.711973
2023-06-17T08:21:37.232Z,9.711786
2023-06-17T08:22:37.218Z,9.712371
2023-06-17T08:23:37.206Z,9.711751
2023-06-17T08:24:37.302Z,9.711694
2023-06-17T08:25:37.206Z,9.712198
2023-06-17T08:26:37.189Z,9.712939
2023-06-17T08:27:38.163Z,9.712674
2023-06-17T08:28:37.177Z,9.712549
2023-06-17T08:29:37.166Z,9.712527
2023-06-17T08:30:37.167Z,9.712514
2023-06-17T08:31:37.162Z,9.712542
2023-06-17T08:32:37.167Z,9.712559
2023-06-17T08:33:37.124Z,9.712665
2023-06-17T08:34:37.116Z,9.712839
2023-06-17T08:35:37.113Z,9.712858
2023-06-17T08:36:37.453Z,9.712841
2023-06-17T08:37:37.226Z,9.712800
2023-06-17T08:38:37.101Z,9.712522
2023-06-17T08:39:38.238Z,9.712549
2023-06-17T08:40:37.074Z,9.712423
2023-06-17T08:41:37.072Z,9.712330
2023-06-17T08:42:37.055Z,9.712169
2023-06-17T08:43:37.053Z,9.712176
2023-06-17T08:44:37.042Z,9.712157
2023-06-17T08:45:38.756Z,9.712049
2023-06-17T08:46:38.037Z,9.712137
2023-06-17T08:47:37.064Z,9.712364
2023-06-17T08:48:37.023Z,9.712444
2023-06-17T08:49:37.035Z,9.712141
2023-06-17T08:50:37.013Z,9.711988
2023-06-17T08:51:37.012Z,9.711723
2023-06-17T08:52:36.994Z,9.711596
2023-06-17T08:53:36.990Z,9.711395
2023-06-17T08:54:36.986Z,9.711367
2023-06-17T08:55:36.968Z,9.711199
2023-06-17T08:56:36.962Z,9.711294
2023-06-17T08:57:36.975Z,9.711346
2023-06-17T08:58:36.954Z,9.711458
2023-06-17T08:59:36.944Z,9.711895
2023-06-17T09:00:36.947Z,9.711556
2023-06-17T09:01:37.000Z,9.711664
2023-06-17T09:02:36.952Z,9.711669
2023-06-17T09:03:36.915Z,9.711640
2023-06-17T09:04:36.977Z,9.711505
2023-06-17T09:05:36.906Z,9.711561
2023-06-17T09:06:36.906Z,9.711509
2023-06-17T09:07:36.886Z,9.711464
2023-06-17T09:08:36.876Z,9.711474
2023-06-17T09:09:36.891Z,9.711402
2023-06-17T09:10:36.859Z,9.711469
2023-06-17T09:11:36.844Z,9.711500
2023-06-17T09:12:36.867Z,9.711591
2023-06-17T09:13:36.847Z,9.711581
2023-06-17T09:14:36.844Z,9.711548
2023-06-17T09:15:36.825Z,9.711525
2023-06-17T09:16:36.929Z,9.711510
2023-06-17T09:17:36.824Z,9.711488
2023-06-17T09:18:36.853Z,9.711509
2023-06-17T09:19:36.808Z,9.711392
2023-06-17T09:20:36.779Z,9.711505
2023-06-17T09:21:36.771Z,9.711730
2023-06-17T09:22:38.469Z,9.711557
2023-06-17T09:23:36.771Z,9.711615
2023-06-17T09:24:36.816Z,9.711638
2023-06-17T09:25:36.753Z,9.711588
2023-06-17T09:26:36.752Z,9.711551
2023-06-17T09:27:36.722Z,9.711566
2023-06-17T09:28:36.771Z,9.711615
2023-06-17T09:29:37.867Z,9.711603
2023-06-17T09:30:37.720Z,9.711661
2023-06-17T09:31:36.705Z,9.711670
2023-06-17T09:32:36.709Z,9.711630
2023-06-17T09:33:36.707Z,9.711638
2023-06-17T09:34:36.672Z,9.711592
2023-06-17T09:35:38.425Z,9.711600
2023-06-17T09:36:37.651Z,9.711617
2023-06-17T09:37:38.855Z,9.711512
2023-06-17T09:38:37.639Z,9.711637
2023-06-17T09:39:36.652Z,9.711613
2023-06-17T09:40:37.450Z,9.711699
2023-06-17T09:41:36.633Z,9.711616
2023-06-17T09:42:36.624Z,9.711621
2023-06-17T09:43:36.614Z,9.711580
2023-06-17T09:44:36.597Z,9.711539
2023-06-17T09:45:36.617Z,9.711602
2023-06-17T09:46:36.740Z,9.711601
2023-06-17T09:47:38.131Z,9.711559
2023-06-17T09:48:37.572Z,9.711560
2023-06-17T09:49:36.565Z,9.711590
2023-06-17T09:50:36.582Z,9.711629
2023-06-17T09:51:36.549Z,9.711630
2023-06-17T09:52:36.542Z,9.711575
2023-06-17T09:53:38.303Z,9.711625
2023-06-17T09:54:36.522Z,9.711593
2023-06-17T09:55:36.527Z,9.711613
2023-06-17T09:56:36.545Z,9.711661
2023-06-17T09:57:36.504Z,9.711648
2023-06-17T09:58:36.509Z,9.711676
2023-06-17T09:59:36.488Z,9.711575
2023-06-17T10:00:36.510Z,9.711608
2023-06-17T10:01:36.489Z,9.711706
2023-06-17T10:02:36.501Z,9.711685
2023-06-17T10:03:36.649Z,9.711781
2023-06-17T10:04:39.061Z,9.711731
2023-06-17T10:05:37.450Z,9.711813
2023-06-17T10:06:36.444Z,9.711803
2023-06-17T10:07:36.424Z,9.711782
2023-06-17T10:08:36.426Z,9.711812
2023-06-17T10:09:36.407Z,9.711846
2023-06-17T10:10:36.415Z,9.711901
2023-06-17T10:11:36.402Z,9.711738
2023-06-17T10:12:36.399Z,9.711810
2023-06-17T10:13:36.381Z,9.711806
2023-06-17T10:14:36.407Z,9.711789
2023-06-17T10:15:36.370Z,9.711956
2023-06-17T10:16:36.349Z,9.711915
2023-06-17T10:17:36.427Z,9.711819
2023-06-17T10:18:36.365Z,9.711841
2023-06-17T10:19:36.367Z,9.711714
2023-06-17T10:20:36.334Z,9.711680
2023-06-17T10:21:36.992Z,9.711775
2023-06-17T10:22:36.308Z,9.711843
2023-06-17T10:23:36.314Z,9.711818
2023-06-17T10:24:36.337Z,9.711904
2023-06-17T10:25:36.309Z,9.711998
2023-06-17T10:26:36.282Z,9.712128
2023-06-17T10:27:36.902Z,9.711810
2023-06-17T10:28:36.259Z,9.711603
2023-06-17T10:29:36.246Z,9.712165
2023-06-17T10:30:36.237Z,9.712028
2023-06-17T10:31:36.244Z,9.712013
2023-06-17T10:32:36.293Z,9.711919
2023-06-17T10:33:36.216Z,9.711840
2023-06-17T10:34:36.230Z,9.711843
2023-06-17T10:35:36.196Z,9.711937
2023-06-17T10:36:36.188Z,9.712078
2023-06-17T10:37:36.186Z,9.711987
2023-06-17T10:38:36.182Z,9.712070
2023-06-17T10:39:36.182Z,9.712147
2023-06-17T10:40:36.162Z,9.712181
2023-06-17T10:41:36.156Z,9.712058
2023-06-17T10:42:36.139Z,9.711804
2023-06-17T10:43:36.136Z,9.711660
2023-06-17T10:44:36.296Z,9.711850
2023-06-17T10:45:36.149Z,9.711965
2023-06-17T10:46:37.002Z,9.712131
2023-06-17T10:47:36.114Z,9.712139
2023-06-17T10:48:36.119Z,9.712169
2023-06-17T10:49:36.084Z,9.712006
2023-06-17T10:50:36.089Z,9.712017
2023-06-17T10:51:52.124Z,9.712378
2023-06-17T10:52:38.073Z,9.712376
2023-06-17T10:53:36.068Z,9.712007
2023-06-17T10:54:36.053Z,9.711860
2023-06-17T10:55:36.922Z,9.711806
2023-06-17T10:56:36.040Z,9.711801
2023-06-17T10:57:36.036Z,9.711770
2023-06-17T10:58:36.018Z,9.711803
2023-06-17T10:59:36.007Z,9.711776
2023-06-17T11:00:36.031Z,9.711812
2023-06-17T11:01:36.025Z,9.711831
2023-06-17T11:02:37.033Z,9.711762
2023-06-17T11:03:36.276Z,9.711719
2023-06-17T11:04:35.973Z,9.711786
2023-06-17T11:05:35.962Z,9.711788
2023-06-17T11:06:35.975Z,9.711777
2023-06-17T11:07:35.989Z,9.711775
2023-06-17T11:08:35.958Z,9.711724
2023-06-17T11:09:35.937Z,9.711679
2023-06-17T11:10:35.977Z,9.711678
2023-06-17T11:11:35.941Z,9.711687
2023-06-17T11:12:36.499Z,9.711696
2023-06-17T11:13:35.927Z,9.711712
2023-06-17T11:14:35.924Z,9.711752
2023-06-17T11:15:35.903Z,9.711726
2023-06-17T11:16:36.020Z,9.711729
2023-06-17T11:17:35.911Z,9.711692
2023-06-17T11:18:35.881Z,9.711735
2023-06-17T11:19:35.887Z,9.711700
2023-06-17T11:20:35.852Z,9.711714
2023-06-17T11:21:35.860Z,9.711698
2023-06-17T11:22:35.850Z,9.711760
2023-06-17T11:23:35.863Z,9.711713
2023-06-17T11:24:37.574Z,9.711740
2023-06-17T11:25:44.185Z,9.711689
2023-06-17T11:26:37.803Z,9.711734
2023-06-17T11:27:35.797Z,9.711842
2023-06-17T11:28:35.786Z,9.711640
2023-06-17T11:29:35.800Z,9.711403
2023-06-17T11:30:35.783Z,9.711366
2023-06-17T11:31:35.770Z,9.711278
2023-06-17T11:32:35.865Z,9.711193
2023-06-17T11:33:37.813Z,9.711614
2023-06-17T11:34:36.768Z,9.711463
2023-06-17T11:35:35.738Z,9.711589
2023-06-17T11:36:35.725Z,9.711579
2023-06-17T11:37:35.713Z,9.711479
2023-06-17T11:38:35.711Z,9.711777
2023-06-17T11:39:38.133Z,9.711647
2023-06-17T11:40:35.695Z,9.711677
2023-06-17T11:41:35.678Z,9.711504
2023-06-17T11:42:35.691Z,9.711504
2023-06-17T11:43:35.672Z,9.711504
2023-06-17T11:44:35.672Z,9.711504
2023-06-17T11:45:36.539Z,9.711515
2023-06-17T11:46:35.716Z,9.711515
2023-06-17T11:47:35.693Z,9.711474